Sun Excelsior — 3EUF9 — position and weather

sailwx.info

Track history (hours):
 
Tides and Currents Weather Stations Pressure Air Temp Water Temp Dewpoint Dewpoint Depression Visibility Wind Speed Wind Dir Waves Ship Positions

Sun Excelsior

Last reported at 2018-Feb-17 07:33 UTC. Time now 2018-Feb-19 21:25 UTC.
Position N 34°18' E 129°55'.

Length 224 m; draft 13.7 m.

Type: Cargo ship. MMSI: 370737000.

Date/timePositionNaut miles runAvg speedWind from/ knotsBaromVisibWave heightAir tempDewpointWater temp
2018-Feb-17 07:33N 34°18' E 129°55'812.4
2018-Feb-17 06:54N 34°24' E 130°02'512.4
2018-Feb-17 06:29N 34°27' E 130°07'712.4
2018-Feb-17 05:54N 34°32' E 130°13'  
2018-Feb-14 23:58N 41°19' E 140°17'3 7.5
2018-Feb-14 23:30N 41°21' E 140°21'5 9.0
2018-Feb-14 22:58N 41°24' E 140°26'5 9.9
2018-Feb-14 22:30N 41°26' E 140°31'510.8
2018-Feb-14 22:00N 41°29' E 140°38'611.3
2018-Feb-14 21:30N 41°32' E 140°44'510.9
2018-Feb-14 21:00N 41°35' E 140°50'5 9.2
2018-Feb-14 20:30N 41°37' E 140°56'4 8.8
2018-Feb-14 20:00N 41°37' E 141°01'5 9.0
2018-Feb-14 19:30N 41°37' E 141°08'611.5
2018-Feb-14 19:00N 41°37' E 141°15'611.5
2018-Feb-14 18:30N 41°37' E 141°23'510.0
2018-Feb-14 18:00N 41°37' E 141°30'5 9.7
2018-Feb-14 17:30N 41°37' E 141°36'  
Track history (hours):
 
Tides and Currents Weather Stations Pressure Air Temp Water Temp Dewpoint Dewpoint Depression Visibility Wind Speed Wind Dir Waves Ship Positions

Sun Excelsior

Last reported at 2018-Feb-17 07:33 UTC. Time now 2018-Feb-19 21:25 UTC.
Position N 34°18' E 129°55'.

Length 224 m; draft 13.7 m.

Type: Cargo ship. MMSI: 370737000.

Date/timePositionNaut miles runAvg speedWind from/ knotsBaromVisibWave heightAir tempDewpointWater temp
2018-Feb-17 07:33N 34°18' E 129°55'812.4
2018-Feb-17 06:54N 34°24' E 130°02'512.4
2018-Feb-17 06:29N 34°27' E 130°07'712.4
2018-Feb-17 05:54N 34°32' E 130°13'  
2018-Feb-14 23:58N 41°19' E 140°17'3 7.5
2018-Feb-14 23:30N 41°21' E 140°21'5 9.0
2018-Feb-14 22:58N 41°24' E 140°26'5 9.9
2018-Feb-14 22:30N 41°26' E 140°31'510.8
2018-Feb-14 22:00N 41°29' E 140°38'611.3
2018-Feb-14 21:30N 41°32' E 140°44'510.9
2018-Feb-14 21:00N 41°35' E 140°50'5 9.2
2018-Feb-14 20:30N 41°37' E 140°56'4 8.8
2018-Feb-14 20:00N 41°37' E 141°01'5 9.0
2018-Feb-14 19:30N 41°37' E 141°08'611.5
2018-Feb-14 19:00N 41°37' E 141°15'611.5
2018-Feb-14 18:30N 41°37' E 141°23'510.0
2018-Feb-14 18:00N 41°37' E 141°30'5 9.7
2018-Feb-14 17:30N 41°37' E 141°36'  

Dump ship's entire track history